createdAt,value
2018-03-01T00:02:14.212Z,63.15
2018-03-01T00:04:42.669Z,62.95
2018-03-01T00:07:11.141Z,63.08
2018-03-01T00:09:39.577Z,63.11
2018-03-01T00:12:08.022Z,63.12
2018-03-01T00:14:36.715Z,63.05
2018-03-01T00:17:05.157Z,63.07
2018-03-01T00:19:33.582Z,63.10
2018-03-01T00:22:02.051Z,63.09
2018-03-01T00:24:30.481Z,63.18
2018-03-01T00:26:58.912Z,63.34
2018-03-01T00:29:27.402Z,63.33
2018-03-01T00:31:55.817Z,63.46
2018-03-01T00:34:24.264Z,63.53
2018-03-01T00:36:52.750Z,63.78
2018-03-01T00:39:21.169Z,63.75
2018-03-01T00:41:49.586Z,63.78
2018-03-01T00:44:18.039Z,63.81
2018-03-01T00:46:46.455Z,63.91
2018-03-01T00:49:14.893Z,63.99
2018-03-01T00:51:44.149Z,63.87
2018-03-01T00:54:12.562Z,64.03
2018-03-01T00:56:40.978Z,64.00
2018-03-01T00:59:09.431Z,64.06
2018-03-01T01:01:37.860Z,64.15
2018-03-01T01:04:06.292Z,63.89
2018-03-01T01:06:34.758Z,64.25
2018-03-01T01:09:03.214Z,64.15
2018-03-01T01:11:31.641Z,63.89
2018-03-01T01:14:00.117Z,64.35
2018-03-01T01:16:28.535Z,64.00
2018-03-01T01:18:56.946Z,64.26
2018-03-01T01:21:25.402Z,64.18
2018-03-01T01:23:53.848Z,64.06
2018-03-01T01:26:22.275Z,64.40
2018-03-01T01:28:50.748Z,64.72
2018-03-01T01:31:19.192Z,64.55
2018-03-01T01:33:47.629Z,64.15
2018-03-01T01:36:16.117Z,64.58
2018-03-01T01:38:44.557Z,64.66
2018-03-01T01:41:12.993Z,64.69
2018-03-01T01:43:41.481Z,64.40
2018-03-01T01:46:09.898Z,64.37
2018-03-01T01:48:38.340Z,64.61
2018-03-01T01:51:06.852Z,64.70
2018-03-01T01:53:35.301Z,64.38
2018-03-01T01:56:03.769Z,64.45
2018-03-01T01:58:32.233Z,64.36
2018-03-01T02:01:00.659Z,64.41
2018-03-01T02:03:29.101Z,64.27
2018-03-01T02:05:57.579Z,64.48
2018-03-01T02:08:26.009Z,64.52
2018-03-01T02:10:54.431Z,64.23
2018-03-01T02:13:22.932Z,64.25
2018-03-01T02:15:51.374Z,64.46
2018-03-01T02:18:19.824Z,64.68
2018-03-01T02:20:48.318Z,64.44
2018-03-01T02:23:16.762Z,64.96
2018-03-01T02:25:45.188Z,64.53
2018-03-01T02:28:13.680Z,64.63
2018-03-01T02:30:42.129Z,64.84
2018-03-01T02:33:10.563Z,64.68
2018-03-01T02:35:39.045Z,64.85
2018-03-01T02:38:07.530Z,64.61
2018-03-01T02:40:35.983Z,64.87
2018-03-01T02:43:04.462Z,64.66
2018-03-01T02:45:32.901Z,64.44
2018-03-01T02:48:01.342Z,64.63
2018-03-01T02:50:29.830Z,64.46
2018-03-01T02:52:58.261Z,64.85
2018-03-01T02:55:26.687Z,64.86
2018-03-01T02:57:55.189Z,64.96
2018-03-01T03:00:23.609Z,64.71
2018-03-01T03:02:52.030Z,65.02
2018-03-01T03:05:20.498Z,65.22
2018-03-01T03:07:48.928Z,65.18
2018-03-01T03:10:17.346Z,64.99
2018-03-01T03:12:45.805Z,65.19
2018-03-01T03:15:14.232Z,65.11
2018-03-01T03:17:42.646Z,65.48
2018-03-01T03:20:11.112Z,65.23
2018-03-01T03:22:39.531Z,65.32
2018-03-01T03:25:07.954Z,65.21
2018-03-01T03:27:36.437Z,65.25
2018-03-01T03:30:04.856Z,65.54
2018-03-01T03:32:33.282Z,65.53
2018-03-01T03:35:01.750Z,65.60
2018-03-01T03:37:30.180Z,65.65
2018-03-01T03:39:58.646Z,65.63
2018-03-01T03:42:27.139Z,65.81
2018-03-01T03:44:55.560Z,65.69
2018-03-01T03:47:23.984Z,65.74
2018-03-01T03:49:52.460Z,65.79
2018-03-01T03:52:20.874Z,65.82
2018-03-01T03:54:49.291Z,65.88
2018-03-01T03:57:17.754Z,65.99
2018-03-01T03:59:46.187Z,66.09
2018-03-01T04:02:14.614Z,66.13
2018-03-01T04:04:43.108Z,65.97
2018-03-01T04:07:11.548Z,66.09
2018-03-01T04:09:39.987Z,66.05
2018-03-01T04:12:08.468Z,66.46
2018-03-01T04:14:36.895Z,66.23
2018-03-01T04:17:05.318Z,66.43
2018-03-01T04:19:33.791Z,66.22
2018-03-01T04:22:02.218Z,66.41
2018-03-01T04:24:30.657Z,66.55
2018-03-01T04:26:59.133Z,66.50
2018-03-01T04:29:27.560Z,66.45
2018-03-01T04:31:55.997Z,66.65
2018-03-01T04:34:24.707Z,66.46
2018-03-01T04:36:53.139Z,66.61
2018-03-01T04:39:21.562Z,66.79
2018-03-01T04:41:50.028Z,66.63
2018-03-01T04:44:18.446Z,66.60
2018-03-01T04:46:46.870Z,66.82
2018-03-01T04:49:15.350Z,66.93
2018-03-01T04:51:43.786Z,67.11
2018-03-01T04:54:12.210Z,67.02
2018-03-01T04:56:40.670Z,66.93
2018-03-01T04:59:09.092Z,67.05
2018-03-01T05:01:37.510Z,67.20
2018-03-01T05:04:06.042Z,67.14
2018-03-01T05:06:34.452Z,67.02
2018-03-01T05:09:02.899Z,67.12
2018-03-01T05:11:31.354Z,67.30
2018-03-01T05:13:59.768Z,67.49
2018-03-01T05:16:28.186Z,67.42
2018-03-01T05:18:56.682Z,67.47
2018-03-01T05:21:25.125Z,67.70
2018-03-01T05:23:53.555Z,67.46
2018-03-01T05:26:22.205Z,67.31
2018-03-01T05:28:50.624Z,67.47
2018-03-01T05:31:19.095Z,67.53
2018-03-01T05:33:47.572Z,67.58
2018-03-01T05:36:15.986Z,67.94
2018-03-01T05:38:44.413Z,67.78
2018-03-01T05:41:12.875Z,67.89
2018-03-01T05:43:41.296Z,67.94
2018-03-01T05:46:09.756Z,67.92
2018-03-01T05:48:38.251Z,68.01
2018-03-01T05:51:06.677Z,68.13
2018-03-01T05:53:35.098Z,67.99
2018-03-01T05:56:03.570Z,68.32
2018-03-01T05:58:32.010Z,68.04
2018-03-01T06:01:00.457Z,68.09
2018-03-01T06:03:28.932Z,67.95
2018-03-01T06:05:57.368Z,68.20
2018-03-01T06:08:25.785Z,68.30
2018-03-01T06:10:54.250Z,68.19
2018-03-01T06:13:22.684Z,68.62
2018-03-01T06:15:51.126Z,68.71
2018-03-01T06:18:19.751Z,68.49
2018-03-01T06:20:48.186Z,68.42
2018-03-01T06:23:16.629Z,68.84
2018-03-01T06:25:45.097Z,68.75
2018-03-01T06:28:13.506Z,68.78
2018-03-01T06:30:41.930Z,68.75
2018-03-01T06:33:10.390Z,68.77
2018-03-01T06:35:38.799Z,68.56
2018-03-01T06:38:07.224Z,68.74
2018-03-01T06:40:35.707Z,68.56
2018-03-01T06:43:04.131Z,68.64
2018-03-01T06:45:32.554Z,68.54
2018-03-01T06:48:01.033Z,68.73
2018-03-01T06:50:29.467Z,68.70
2018-03-01T06:52:57.895Z,68.79
2018-03-01T06:55:26.350Z,68.67
2018-03-01T06:57:54.782Z,68.68
2018-03-01T07:00:23.206Z,69.06
2018-03-01T07:02:51.670Z,68.79
2018-03-01T07:05:20.081Z,68.89
2018-03-01T07:07:48.507Z,68.61
2018-03-01T07:10:16.957Z,68.79
2018-03-01T07:12:45.392Z,68.62
2018-03-01T07:15:13.827Z,68.95
2018-03-01T07:17:42.295Z,68.91
2018-03-01T07:20:10.714Z,68.94
2018-03-01T07:22:39.163Z,69.04
2018-03-01T07:25:07.845Z,68.99
2018-03-01T07:27:36.271Z,69.26
2018-03-01T07:30:04.686Z,69.23
2018-03-01T07:32:33.174Z,69.16
2018-03-01T07:35:01.597Z,69.22
2018-03-01T07:37:30.028Z,68.90
2018-03-01T07:39:58.501Z,69.21
2018-03-01T07:42:26.932Z,68.82
2018-03-01T07:44:55.361Z,68.84
2018-03-01T07:47:23.832Z,68.50
2018-03-01T07:49:52.261Z,68.35
2018-03-01T07:52:20.682Z,68.27
2018-03-01T07:54:49.134Z,68.36
2018-03-01T07:57:17.560Z,68.12
2018-03-01T07:59:45.978Z,67.45
2018-03-01T08:02:14.448Z,67.94
2018-03-01T08:04:42.888Z,67.46
2018-03-01T08:07:11.319Z,67.71
2018-03-01T08:09:39.774Z,67.37
2018-03-01T08:12:08.193Z,67.22
2018-03-01T08:14:36.999Z,66.65
2018-03-01T08:17:05.696Z,66.61
2018-03-01T08:19:34.136Z,66.38
2018-03-01T08:22:02.554Z,66.14
2018-03-01T08:24:31.040Z,66.24
2018-03-01T08:26:59.466Z,65.84
2018-03-01T08:29:27.901Z,66.01
2018-03-01T08:31:56.565Z,65.72
2018-03-01T08:34:24.999Z,65.41
2018-03-01T08:36:53.422Z,65.33
2018-03-01T08:39:21.885Z,65.09
2018-03-01T08:41:50.317Z,64.83
2018-03-01T08:44:18.743Z,65.34
2018-03-01T08:46:47.220Z,65.25
2018-03-01T08:49:15.638Z,64.27
2018-03-01T08:51:44.089Z,64.21
2018-03-01T08:54:12.567Z,64.42
2018-03-01T08:56:40.986Z,63.85
2018-03-01T08:59:09.418Z,63.94
2018-03-01T09:01:37.882Z,64.13
2018-03-01T09:04:06.308Z,63.58
2018-03-01T09:06:34.726Z,63.69
2018-03-01T09:09:03.194Z,62.67
2018-03-01T09:11:31.623Z,62.87
2018-03-01T09:14:00.050Z,62.71
2018-03-01T09:16:28.510Z,62.14
2018-03-01T09:18:56.931Z,61.52
2018-03-01T09:21:25.350Z,61.21
2018-03-01T09:23:53.822Z,61.92
2018-03-01T09:26:22.237Z,61.27
2018-03-01T09:28:50.655Z,60.27
2018-03-01T09:31:19.124Z,59.83
2018-03-01T09:33:47.556Z,59.43
2018-03-01T09:36:15.984Z,59.76
2018-03-01T09:38:44.460Z,59.17
2018-03-01T09:41:12.878Z,59.08
2018-03-01T09:43:41.297Z,59.04
2018-03-01T09:46:09.754Z,59.13
2018-03-01T09:48:38.195Z,58.57
2018-03-01T09:51:06.624Z,57.74
2018-03-01T09:53:35.085Z,57.44
2018-03-01T09:56:03.516Z,57.00
2018-03-01T09:58:31.943Z,57.30
2018-03-01T10:01:00.415Z,57.16
2018-03-01T10:03:28.822Z,57.51
2018-03-01T10:05:57.248Z,56.97
2018-03-01T10:08:25.712Z,57.10
2018-03-01T10:10:54.131Z,56.73
2018-03-01T10:13:22.554Z,56.25
2018-03-01T10:15:51.038Z,56.37
2018-03-01T10:18:19.465Z,56.21
2018-03-01T10:20:47.888Z,57.08
2018-03-01T10:23:16.353Z,55.43
2018-03-01T10:25:44.768Z,55.42
2018-03-01T10:28:13.189Z,55.96
2018-03-01T10:30:41.710Z,54.25
2018-03-01T10:33:10.119Z,54.52
2018-03-01T10:35:38.526Z,54.61
2018-03-01T10:38:07.005Z,54.04
2018-03-01T10:40:35.440Z,55.18
2018-03-01T10:43:03.886Z,54.85
2018-03-01T10:45:32.358Z,53.13
2018-03-01T10:48:00.791Z,53.63
2018-03-01T10:50:29.228Z,52.73
2018-03-01T10:52:57.700Z,52.89
2018-03-01T10:55:26.137Z,52.71
2018-03-01T10:57:54.568Z,51.66
2018-03-01T11:00:28.526Z,52.84
2018-03-01T11:02:56.953Z,52.62
2018-03-01T11:05:25.380Z,53.16
2018-03-01T11:07:53.865Z,52.96
2018-03-01T11:10:22.309Z,52.31
2018-03-01T11:12:50.735Z,52.51
2018-03-01T11:15:19.199Z,52.93
2018-03-01T11:17:47.640Z,51.76
2018-03-01T11:20:16.090Z,52.00
2018-03-01T11:22:44.562Z,51.51
2018-03-01T11:25:12.994Z,52.10
2018-03-01T11:27:41.489Z,51.67
2018-03-01T11:30:09.977Z,51.03
2018-03-01T11:32:38.412Z,51.60
2018-03-01T11:35:06.874Z,51.37
2018-03-01T11:37:35.363Z,50.68
2018-03-01T11:40:03.809Z,50.16
2018-03-01T11:42:32.235Z,50.70
2018-03-01T11:45:00.724Z,50.10
2018-03-01T11:47:29.147Z,50.19
2018-03-01T11:49:57.575Z,49.51
2018-03-01T11:52:26.030Z,49.90
2018-03-01T11:54:54.464Z,50.58
2018-03-01T11:57:22.905Z,50.28
2018-03-01T11:59:51.393Z,49.39
2018-03-01T12:02:19.810Z,49.29
2018-03-01T12:04:48.218Z,49.71
2018-03-01T12:07:16.666Z,49.81
2018-03-01T12:09:45.090Z,48.96
2018-03-01T12:12:13.504Z,49.31
2018-03-01T12:14:42.100Z,49.21
2018-03-01T12:17:10.544Z,48.23
2018-03-01T12:19:38.954Z,49.34
2018-03-01T12:22:07.425Z,48.29
2018-03-01T12:24:35.838Z,48.62
2018-03-01T12:27:04.247Z,48.97
2018-03-01T12:29:32.698Z,48.32
2018-03-01T12:32:01.110Z,47.35
2018-03-01T12:34:29.533Z,47.57
2018-03-01T12:36:58.021Z,47.88
2018-03-01T12:39:26.442Z,47.16
2018-03-01T12:41:54.865Z,48.10
2018-03-01T12:44:23.335Z,47.05
2018-03-01T12:46:51.761Z,47.34
2018-03-01T12:49:20.205Z,47.92
2018-03-01T12:51:48.704Z,46.64
2018-03-01T12:54:17.134Z,47.11
2018-03-01T12:56:45.568Z,46.52
2018-03-01T12:59:14.048Z,46.85
2018-03-01T13:01:42.500Z,46.85
2018-03-01T13:04:10.949Z,46.34
2018-03-01T13:06:39.428Z,45.57
2018-03-01T13:09:07.858Z,45.79
2018-03-01T13:11:36.296Z,46.22
2018-03-01T13:14:04.781Z,46.30
2018-03-01T13:16:33.224Z,45.95
2018-03-01T13:19:01.650Z,46.24
2018-03-01T13:21:30.113Z,45.20
2018-03-01T13:23:58.552Z,45.77
2018-03-01T13:26:26.996Z,46.29
2018-03-01T13:28:55.471Z,44.85
2018-03-01T13:31:28.367Z,44.99
2018-03-01T13:34:02.695Z,44.76
2018-03-01T13:36:31.141Z,44.16
2018-03-01T13:38:59.579Z,44.45
2018-03-01T13:41:28.058Z,44.54
2018-03-01T13:43:56.497Z,44.78
2018-03-01T13:46:28.962Z,45.39
2018-03-01T13:48:57.594Z,44.24
2018-03-01T13:51:26.045Z,43.51
2018-03-01T13:53:54.542Z,43.50
2018-03-01T13:56:22.985Z,44.06
2018-03-01T13:58:51.428Z,44.13
2018-03-01T14:01:19.904Z,43.55
2018-03-01T14:03:48.362Z,43.65
2018-03-01T14:06:17.324Z,43.59
2018-03-01T14:08:45.799Z,43.45
2018-03-01T14:11:14.227Z,43.08
2018-03-01T14:13:42.673Z,42.86
2018-03-01T14:16:11.163Z,43.45
2018-03-01T14:21:54.226Z,42.95
2018-03-01T14:24:24.629Z,43.28
2018-03-01T14:30:03.480Z,42.88
2018-03-01T14:32:31.947Z,43.25
2018-03-01T14:35:00.369Z,43.27
2018-03-01T14:37:28.783Z,42.97
2018-03-01T14:39:57.243Z,43.28
2018-03-01T14:42:25.654Z,42.82
2018-03-01T14:44:54.071Z,43.26
2018-03-01T14:47:22.529Z,42.80
2018-03-01T14:49:50.952Z,42.32
2018-03-01T14:52:19.371Z,42.89
2018-03-01T14:54:47.829Z,42.82
2018-03-01T14:57:16.254Z,42.72
2018-03-01T14:59:44.667Z,42.69
2018-03-01T15:02:13.122Z,42.58
2018-03-01T15:04:41.536Z,43.00
2018-03-01T15:07:09.997Z,42.55
2018-03-01T15:09:38.438Z,42.36
2018-03-01T15:12:06.861Z,42.88
2018-03-01T15:14:35.279Z,42.95
2018-03-01T15:17:03.730Z,43.35
2018-03-01T15:19:32.149Z,43.55
2018-03-01T15:22:00.564Z,43.39
2018-03-01T15:24:29.262Z,44.53
2018-03-01T15:26:57.692Z,44.03
2018-03-01T15:29:26.102Z,44.52
2018-03-01T15:31:54.572Z,44.62
2018-03-01T15:34:22.992Z,44.89
2018-03-01T15:36:51.404Z,45.05
2018-03-01T15:39:19.860Z,45.31
2018-03-01T15:41:48.266Z,45.97
2018-03-01T15:44:16.671Z,45.62
2018-03-01T15:46:45.147Z,45.13
2018-03-01T15:49:13.564Z,45.53
2018-03-01T15:51:41.994Z,45.40
2018-03-01T15:54:10.448Z,45.65
2018-03-01T15:56:38.882Z,45.35
2018-03-01T15:59:07.306Z,45.54
2018-03-01T16:01:35.935Z,45.53
2018-03-01T16:04:04.353Z,45.54
2018-03-01T16:06:32.772Z,45.49
2018-03-01T16:09:01.238Z,46.25
2018-03-01T16:11:29.667Z,46.15
2018-03-01T16:13:58.093Z,46.36
2018-03-01T16:16:26.570Z,46.09
2018-03-01T16:18:54.977Z,46.70
2018-03-01T16:21:23.386Z,46.62
2018-03-01T16:23:51.838Z,46.71
2018-03-01T16:26:20.261Z,46.64
2018-03-01T16:28:48.674Z,46.81
2018-03-01T16:31:17.139Z,46.91
2018-03-01T16:33:45.545Z,46.96
2018-03-01T16:36:13.964Z,46.64
2018-03-01T16:38:42.431Z,47.20
2018-03-01T16:41:10.856Z,46.66
2018-03-01T16:43:39.299Z,47.17
2018-03-01T16:46:07.958Z,47.31
2018-03-01T16:48:36.422Z,47.39
2018-03-01T16:51:04.859Z,47.90
2018-03-01T16:53:33.374Z,47.89
2018-03-01T16:56:02.060Z,47.76
2018-03-01T16:58:30.496Z,47.93
2018-03-01T17:00:58.989Z,48.14
2018-03-01T17:03:27.420Z,48.36
2018-03-01T17:05:55.839Z,48.33
2018-03-01T17:08:24.300Z,48.50
2018-03-01T17:10:52.718Z,48.96
2018-03-01T17:13:21.374Z,49.18
2018-03-01T17:15:49.985Z,49.51
2018-03-01T17:18:18.471Z,49.61
2018-03-01T17:20:46.903Z,50.18
2018-03-01T17:23:15.366Z,50.20
2018-03-01T17:25:43.804Z,50.66
2018-03-01T17:28:12.228Z,50.58
2018-03-01T17:30:40.684Z,50.68
2018-03-01T17:33:09.108Z,51.26
2018-03-01T17:35:37.521Z,51.12
2018-03-01T17:38:05.980Z,51.05
2018-03-01T17:40:34.404Z,51.60
2018-03-01T17:43:02.838Z,51.51
2018-03-01T17:45:31.316Z,51.83
2018-03-01T17:47:59.834Z,51.92
2018-03-01T17:50:28.251Z,52.09
2018-03-01T17:52:56.717Z,52.16
2018-03-01T17:55:25.144Z,52.51
2018-03-01T17:57:53.565Z,52.54
2018-03-01T18:00:22.043Z,52.46
2018-03-01T18:02:50.478Z,52.50
2018-03-01T18:05:18.900Z,52.59
2018-03-01T18:07:47.367Z,52.80
2018-03-01T18:10:15.790Z,53.00
2018-03-01T18:12:44.220Z,53.28
2018-03-01T18:15:12.688Z,53.15
2018-03-01T18:17:41.120Z,53.27
2018-03-01T18:20:09.544Z,53.29
2018-03-01T18:22:38.008Z,53.53
2018-03-01T18:25:06.428Z,53.54
2018-03-01T18:27:34.877Z,53.61
2018-03-01T18:30:03.369Z,53.71
2018-03-01T18:32:31.800Z,54.03
2018-03-01T18:35:00.490Z,53.85
2018-03-01T18:37:28.972Z,54.13
2018-03-01T18:39:57.396Z,54.03
2018-03-01T18:42:25.828Z,54.11
2018-03-01T18:44:54.302Z,54.30
2018-03-01T18:47:22.715Z,54.45
2018-03-01T18:49:51.130Z,54.44
2018-03-01T18:52:19.669Z,54.45
2018-03-01T18:54:48.078Z,54.39
2018-03-01T18:57:16.496Z,54.38
2018-03-01T18:59:44.946Z,54.69
2018-03-01T19:02:13.364Z,54.79
2018-03-01T19:04:41.775Z,54.78
2018-03-01T19:07:10.242Z,54.96
2018-03-01T19:09:38.654Z,55.32
2018-03-01T19:12:07.066Z,54.77
2018-03-01T19:14:35.770Z,55.06
2018-03-01T19:17:04.503Z,55.40
2018-03-01T19:19:32.951Z,55.35
2018-03-01T19:22:01.434Z,55.47
2018-03-01T19:24:29.856Z,55.67
2018-03-01T19:26:58.280Z,55.43
2018-03-01T19:29:26.744Z,55.65
2018-03-01T19:31:55.160Z,55.57
2018-03-01T19:34:23.599Z,55.79
2018-03-01T19:36:52.128Z,55.73
2018-03-01T19:39:20.585Z,55.84
2018-03-01T19:41:48.997Z,56.00
2018-03-01T19:44:17.477Z,56.07
2018-03-01T19:46:45.893Z,56.16
2018-03-01T19:49:14.330Z,56.21
2018-03-01T19:51:43.142Z,56.09
2018-03-01T19:54:11.557Z,56.12
2018-03-01T19:56:39.980Z,56.23
2018-03-01T19:59:08.467Z,56.34
2018-03-01T20:01:36.888Z,56.54
2018-03-01T20:04:05.298Z,56.36
2018-03-01T20:06:33.782Z,56.69
2018-03-01T20:09:02.203Z,56.72
2018-03-01T20:11:30.616Z,56.76
2018-03-01T20:13:59.072Z,56.50
2018-03-01T20:16:27.483Z,56.61
2018-03-01T20:18:55.894Z,56.76
2018-03-01T20:21:24.350Z,56.83
2018-03-01T20:23:52.772Z,57.03
2018-03-01T20:26:21.192Z,57.00
2018-03-01T20:28:49.660Z,57.26
2018-03-01T20:31:18.086Z,57.04
2018-03-01T20:33:46.501Z,57.25
2018-03-01T20:36:14.949Z,57.25
2018-03-01T20:38:43.376Z,57.34
2018-03-01T20:41:11.801Z,57.48
2018-03-01T20:43:40.273Z,57.36
2018-03-01T20:46:08.696Z,57.35
2018-03-01T20:48:37.121Z,57.52
2018-03-01T20:51:05.575Z,57.61
2018-03-01T20:53:34.009Z,57.33
2018-03-01T20:56:02.423Z,57.41
2018-03-01T20:58:30.878Z,57.68
2018-03-01T21:00:59.305Z,58.02
2018-03-01T21:03:27.728Z,57.94
2018-03-01T21:05:56.183Z,58.22
2018-03-01T21:08:24.667Z,58.15
2018-03-01T21:10:53.096Z,58.31
2018-03-01T21:13:21.562Z,58.28
2018-03-01T21:15:50.009Z,58.18
2018-03-01T21:18:18.449Z,58.37
2018-03-01T21:20:46.925Z,58.53
2018-03-01T21:23:15.343Z,58.39
2018-03-01T21:25:43.754Z,58.54
2018-03-01T21:28:12.207Z,58.82
2018-03-01T21:30:40.622Z,58.58
2018-03-01T21:33:09.075Z,58.80
2018-03-01T21:35:37.557Z,58.88
2018-03-01T21:38:05.995Z,59.11
2018-03-01T21:40:34.455Z,59.08
2018-03-01T21:43:02.937Z,58.89
2018-03-01T21:45:31.376Z,59.08
2018-03-01T21:47:59.802Z,59.06
2018-03-01T21:50:28.271Z,59.05
2018-03-01T21:52:56.688Z,59.41
2018-03-01T21:55:25.114Z,59.11
2018-03-01T22:00:35.617Z,59.44
2018-03-01T22:03:04.037Z,59.53
2018-03-01T22:05:32.466Z,59.46
2018-03-01T22:08:00.947Z,59.36
2018-03-01T22:10:29.353Z,59.41
2018-03-01T22:12:57.790Z,59.71
2018-03-01T22:15:26.242Z,59.82
2018-03-01T22:17:54.654Z,59.94
2018-03-01T22:20:23.086Z,59.93
2018-03-01T22:22:51.572Z,59.94
2018-03-01T22:25:20.007Z,59.99
2018-03-01T22:27:48.442Z,59.85
2018-03-01T22:30:16.913Z,59.90
2018-03-01T22:32:45.374Z,60.12
2018-03-01T22:35:13.784Z,60.24
2018-03-01T22:37:42.263Z,60.31
2018-03-01T22:40:10.685Z,60.67
2018-03-01T22:42:39.113Z,60.88
2018-03-01T22:45:07.582Z,60.79
2018-03-01T22:47:36.012Z,60.80
2018-03-01T22:50:04.460Z,60.92
2018-03-01T22:52:32.998Z,61.02
2018-03-01T22:55:01.421Z,60.92
2018-03-01T22:57:29.843Z,61.00
2018-03-01T22:59:58.302Z,61.12
2018-03-01T23:02:26.717Z,61.03
2018-03-01T23:04:55.152Z,61.23
2018-03-01T23:07:23.616Z,60.98
2018-03-01T23:09:52.039Z,61.04
2018-03-01T23:12:20.476Z,61.21
2018-03-01T23:14:48.944Z,61.46
2018-03-01T23:17:17.358Z,61.52
2018-03-01T23:19:45.774Z,61.75
2018-03-01T23:22:14.252Z,61.64
2018-03-01T23:24:42.682Z,61.52
2018-03-01T23:27:11.116Z,61.69
2018-03-01T23:29:39.580Z,61.85
2018-03-01T23:32:08.004Z,61.84
2018-03-01T23:34:36.440Z,61.85
2018-03-01T23:37:04.918Z,61.96
2018-03-01T23:39:33.343Z,61.85
2018-03-01T23:42:01.771Z,61.94
2018-03-01T23:44:30.260Z,61.96
2018-03-01T23:46:58.694Z,62.01
2018-03-01T23:49:27.120Z,62.07
2018-03-01T23:51:55.587Z,62.11
2018-03-01T23:54:24.006Z,62.06
2018-03-01T23:56:52.435Z,62.00
2018-03-01T23:59:20.894Z,62.22
